Radar is unstable, so pay attention to the date and time in the image

Latest  Newer  Older  Last 2 hours animation  Current image  Latest image  Summary per 24h (testing)  Summary per 7d (testing) 
Cloud coverage sat images  Infrared sat images 
Real-time lightning map

All time is UTC (add 2 hours in wintertime, 3 hours in DST for Latvia local time)

2020/08/08 08:20 EVRA 080820Z 02003KT 320V130 CAVOK 25/15 Q1025 NOSIG
2020/08/08 08:20 EVLA 080820Z AUTO VRB02KT 9999 FEW064/// SCT170/// 25/19 Q1024
2020/08/08 08:20 EVVA 080820Z AUTO 09004KT 060V130 CAVOK 26/15 Q1025
2020/08/08 08:20 EYKA 080820Z 09005KT 040V140 CAVOK 27/15 Q1025
2020/08/08 08:20 EYPA 080820Z VRB03KT CAVOK 28/17 Q1024
2020/08/08 08:20 EYSA 080820Z VRB02KT CAVOK 26/15 Q1026 BLU NOSIG
2020/08/08 08:20 EYVI 080820Z 03003KT 310V090 9999 BKN046 26/15 Q1025 NOSIG
2020/08/08 07:50 EEKA 080750Z VRB04KT CAVOK 24/16 Q1026
2020/08/08 07:50 EEKE 080750Z 17004KT CAVOK 23/17 Q1026
2020/08/07 12:50 EEPU 071250Z 19006KT 150V220 9999 BKN/// 22/19 Q1027
2020/08/08 08:20 EETN 080820Z 25003KT CAVOK 24/16 Q1025 NOSIG
2020/08/08 07:50 EETU 080750Z AUTO VRB02KT 9999 SCT027/// 23/17 Q1026
   RIGA AIRPORT     EVRA               56 55N  023 58E   10   X     T          6 LV
   LIEPAJA INTL     EVLA        26406  56 31N  021 06E    4   X                8 LV
   VENTPILS         EVVA               57 21N  021 33E    6   X                8 LV
   KAUNAS           EYKA               54 54N  023 55E   77   X     T          6 LT
   PALANGA INTL     EYPA               55 55N  021 03E   10   X                6 LT
   SIAULIAI INTL    EYSA               55 54N  023 24E  135   X     T          6 LT
   VILNIUS INTL     EYVI        26730  54 38N  025 17E  197   X     T          6 LT
   KARDLA           EEKA        26116  58 59N  022 50E    4   X                8 EE
   KURESSAARE       EEKE               58 14N  022 31E    4   X                8 EE
   PARNU            EEPU               58 25N  024 28E   14   X                8 EE
   TALLINN          EETN        26038  59 24N  024 49E   40   X     T          8 EE
   TARTU            EETU               58 19N  026 41E   67   X                8 EE

rain/snow radar image from www.meteo.lv and METAR data from weather.noaa.gov